Time;durP1;ratioP1;P1;durP2;ratioP2;P2;SDS_P1;SDS_P2;PMS_P1;PMS_P2;Temp;Humidity;BMP_temperature;BMP_pressure;BME280_temperature;BME280_humidity;BME280_pressure;Samples;Min_cycle;Max_cycle;Signal;HPM_P1;HPM_P2
2023/10/10 00:01:00;;;;;;;8.90;6.33;;;12.70;99.90;;;;;;5034940;28;20173;-85
2023/10/10 00:03:27;;;;;;;10.23;5.90;;;12.70;99.90;;;;;;5036328;28;20562;-85
2023/10/10 00:05:55;;;;;;;9.27;6.10;;;12.60;99.90;;;;;;5036732;28;20683;-85
2023/10/10 00:08:27;;;;;;;11.33;6.73;;;12.60;99.90;;;;;;5036485;28;20234;-85
2023/10/10 00:10:55;;;;;;;10.73;6.50;;;12.60;99.90;;;;;;5034485;28;20197;-85
2023/10/10 00:13:20;;;;;;;10.00;6.53;;;12.60;99.90;;;;;;5035036;28;20200;-85
2023/10/10 00:15:50;;;;;;;9.13;6.40;;;12.60;99.90;;;;;;5034834;28;20194;-85
2023/10/10 00:18:19;;;;;;;8.93;6.53;;;12.60;99.90;;;;;;5036416;28;20163;-86
2023/10/10 00:21:06;;;;;;;11.17;6.90;;;12.60;99.90;;;;;;5034385;28;20186;-85
2023/10/10 00:23:39;;;;;;;11.17;6.60;;;12.60;99.90;;;;;;5034633;28;20587;-85
2023/10/10 00:26:05;;;;;;;9.13;7.10;;;12.60;99.90;;;;;;5035620;28;20202;-85
2023/10/10 00:28:34;;;;;;;11.00;7.20;;;12.60;99.90;;;;;;5035552;28;20201;-85
2023/10/10 00:31:03;;;;;;;10.70;6.00;;;12.60;99.90;;;;;;5035105;28;20210;-85
2023/10/10 00:33:31;;;;;;;10.77;7.23;;;12.60;99.90;;;;;;5034192;28;20666;-86
2023/10/10 00:35:57;;;;;;;12.20;7.10;;;12.60;99.90;;;;;;5050758;28;20706;-85
2023/10/10 00:38:25;;;;;;;9.80;7.30;;;12.60;99.90;;;;;;5036103;28;20220;-85
2023/10/10 00:40:51;;;;;;;11.73;6.77;;;12.60;99.90;;;;;;5035292;28;20177;-85
2023/10/10 00:43:17;;;;;;;11.80;7.97;;;12.60;99.90;;;;;;5035517;28;20265;-86
2023/10/10 00:45:52;;;;;;;10.57;7.17;;;12.60;99.90;;;;;;5033874;28;20202;-85
2023/10/10 00:48:21;;;;;;;9.23;6.80;;;12.70;99.90;;;;;;5033874;28;20202;-85
2023/10/10 00:50:53;;;;;;;12.37;7.30;;;12.70;99.90;;;;;;5033339;28;20202;-83
2023/10/10 00:53:22;;;;;;;10.77;7.10;;;12.70;99.90;;;;;;5035790;28;20233;-85
2023/10/10 00:55:56;;;;;;;14.40;7.40;;;12.60;99.90;;;;;;5083870;23;20256;-83
2023/10/10 00:58:35;;;;;;;9.87;6.73;;;12.50;99.90;;;;;;5032029;28;20179;-84
2023/10/10 01:01:05;;;;;;;9.10;6.50;;;12.50;99.90;;;;;;5032918;28;20185;-83
2023/10/10 01:03:32;;;;;;;9.67;7.27;;;12.50;99.90;;;;;;5031413;28;20174;-83
2023/10/10 01:05:58;;;;;;;11.17;7.30;;;12.40;99.90;;;;;;5033050;28;20194;-83
2023/10/10 01:08:26;;;;;;;9.50;6.80;;;12.40;99.90;;;;;;5033023;28;20174;-83
2023/10/10 01:10:56;;;;;;;9.43;7.03;;;12.40;99.90;;;;;;5032401;28;20285;-83
2023/10/10 01:13:22;;;;;;;12.80;7.63;;;12.40;99.90;;;;;;5032884;28;20258;-83
2023/10/10 01:15:48;;;;;;;13.23;8.50;;;12.40;99.90;;;;;;5031595;28;20277;-83
2023/10/10 01:18:14;;;;;;;13.37;8.43;;;12.40;99.90;;;;;;5032907;28;20551;-83
2023/10/10 01:20:46;;;;;;;13.60;9.13;;;12.40;99.90;;;;;;5032789;28;20556;-84
2023/10/10 01:23:18;;;;;;;13.17;9.33;;;12.40;99.90;;;;;;5031784;28;20225;-83
2023/10/10 01:25:45;;;;;;;17.10;9.73;;;12.50;99.90;;;;;;5031455;28;20248;-83
2023/10/10 01:28:33;;;;;;;14.53;9.40;;;12.50;99.90;;;;;;5031326;28;20666;-83
2023/10/10 01:30:59;;;;;;;14.17;9.07;;;12.60;99.90;;;;;;5030907;28;20289;-83
2023/10/10 01:33:42;;;;;;;16.37;9.90;;;12.50;99.90;;;;;;5031190;28;20257;-83
2023/10/10 01:36:12;;;;;;;15.27;9.80;;;12.50;99.90;;;;;;5032568;28;20694;-83
2023/10/10 01:38:44;;;;;;;15.37;10.43;;;12.50;99.90;;;;;;5032838;28;20231;-83
2023/10/10 01:41:22;;;;;;;14.40;9.43;;;12.60;99.90;;;;;;5030896;28;20681;-83
2023/10/10 01:43:53;;;;;;;15.77;9.90;;;12.50;99.90;;;;;;5031185;28;20186;-83
2023/10/10 01:46:27;;;;;;;13.03;9.80;;;12.50;99.90;;;;;;5031097;28;20198;-84
2023/10/10 01:48:54;;;;;;;16.70;10.23;;;12.50;99.90;;;;;;5031621;28;20169;-83
2023/10/10 01:51:20;;;;;;;15.43;10.90;;;12.50;99.90;;;;;;5030549;28;20205;-83
2023/10/10 01:53:48;;;;;;;16.23;9.93;;;12.50;99.90;;;;;;5032470;28;20174;-83
2023/10/10 01:56:13;;;;;;;14.63;9.63;;;12.50;99.90;;;;;;5032065;28;20712;-83
2023/10/10 01:58:40;;;;;;;14.80;10.40;;;12.50;99.90;;;;;;5032331;28;20175;-83
2023/10/10 02:01:26;;;;;;;14.60;8.90;;;12.50;99.90;;;;;;5031801;28;20178;-83
2023/10/10 02:03:53;;;;;;;17.10;10.47;;;12.50;99.90;;;;;;5032315;28;20182;-83
2023/10/10 02:06:27;;;;;;;18.23;11.20;;;12.50;99.90;;;;;;5032183;28;20186;-82
2023/10/10 02:08:54;;;;;;;16.10;11.20;;;12.50;99.90;;;;;;5032187;28;20184;-83
2023/10/10 02:11:20;;;;;;;21.37;12.27;;;12.50;99.90;;;;;;5030387;28;20198;-83
2023/10/10 02:13:50;;;;;;;17.30;12.23;;;12.50;99.90;;;;;;5032276;28;20513;-83
2023/10/10 02:16:23;;;;;;;18.77;12.03;;;12.60;99.90;;;;;;5036072;28;20736;-83
2023/10/10 02:18:51;;;;;;;20.10;12.60;;;12.60;99.90;;;;;;5036597;28;20224;-83
2023/10/10 02:21:32;;;;;;;19.77;12.20;;;12.60;99.90;;;;;;5034413;28;20269;-83
2023/10/10 02:24:25;;;;;;;17.87;12.40;;;12.60;99.90;;;;;;5035113;28;20174;-84
2023/10/10 02:26:51;;;;;;;17.67;12.40;;;12.60;99.90;;;;;;5035858;28;20178;-83
2023/10/10 02:29:19;;;;;;;19.90;13.07;;;12.60;99.90;;;;;;5035265;28;20174;-83
2023/10/10 02:31:51;;;;;;;17.20;11.87;;;12.60;99.90;;;;;;5035393;28;20284;-83
2023/10/10 02:34:19;;;;;;;18.53;12.10;;;12.60;99.90;;;;;;5034642;28;20178;-83
2023/10/10 02:36:58;;;;;;;20.50;12.30;;;12.60;99.90;;;;;;5035862;28;20234;-83
2023/10/10 02:39:29;;;;;;;17.23;12.23;;;12.60;99.90;;;;;;5034633;28;20181;-83
2023/10/10 02:42:01;;;;;;;18.53;12.47;;;12.60;99.90;;;;;;5034176;28;20188;-83
2023/10/10 02:44:46;;;;;;;18.10;11.23;;;12.60;99.90;;;;;;5035769;28;20166;-83
2023/10/10 02:47:12;;;;;;;15.27;10.00;;;12.50;99.90;;;;;;5034608;28;20232;-83
2023/10/10 02:49:37;;;;;;;17.73;11.93;;;12.50;99.90;;;;;;5035656;28;20701;-83
2023/10/10 02:52:07;;;;;;;19.30;12.43;;;12.50;99.90;;;;;;5034152;28;20266;-83
2023/10/10 02:54:34;;;;;;;18.90;11.90;;;12.50;99.90;;;;;;5035510;28;20194;-83
2023/10/10 02:57:26;;;;;;;19.73;11.90;;;12.50;99.90;;;;;;5035546;28;20170;-83
2023/10/10 02:59:50;;;;;;;17.70;12.07;;;12.40;99.90;;;;;;5035563;28;20269;-83
2023/10/10 03:02:20;;;;;;;19.70;11.70;;;12.50;99.90;;;;;;5035167;28;20178;-83
2023/10/10 03:07:28;;;;;;;14.23;11.17;;;12.40;99.90;;;;;;5035533;28;20181;-83
2023/10/10 03:12:41;;;;;;;16.70;10.00;;;12.30;99.90;;;;;;5035074;28;20673;-83
2023/10/10 03:17:52;;;;;;;18.97;10.97;;;12.30;99.90;;;;;;5035237;28;20181;-83
2023/10/10 03:28:19;;;;;;;18.67;10.90;;;12.10;99.90;;;;;;5034972;28;20189;-83
2023/10/10 03:30:55;;;;;;;17.60;11.73;;;12.10;99.90;;;;;;5034610;28;20289;-82
2023/10/10 05:25:13;;;;;;;20.77;13.60;;;12.10;99.90;;;;;;5034248;28;20193;-80
2023/10/10 05:27:41;;;;;;;21.70;14.20;;;12.10;99.90;;;;;;5033146;28;20177;-81
2023/10/10 05:30:27;;;;;;;20.07;13.73;;;12.20;99.90;;;;;;5034112;28;20217;-80
2023/10/10 05:33:03;;;;;;;18.20;12.63;;;12.20;99.90;;;;;;5033703;28;20174;-80
2023/10/10 05:35:38;;;;;;;19.37;11.20;;;12.20;99.90;;;;;;5033598;28;20186;-83
2023/10/10 05:38:07;;;;;;;16.70;11.10;;;12.20;99.90;;;;;;5032199;28;20177;-82
2023/10/10 05:40:33;;;;;;;17.47;11.30;;;12.30;99.90;;;;;;5031640;28;20182;-81
2023/10/10 05:43:25;;;;;;;14.80;10.27;;;12.30;99.90;;;;;;5031464;28;20228;-81
2023/10/10 05:45:51;;;;;;;13.30;10.00;;;12.20;99.90;;;;;;5033504;28;20551;-82
2023/10/10 05:48:17;;;;;;;13.80;10.23;;;12.10;99.90;;;;;;5032337;28;20681;-80
2023/10/10 05:50:42;;;;;;;14.13;9.30;;;12.10;99.90;;;;;;5032319;28;20216;-81
2023/10/10 05:53:08;;;;;;;12.97;10.03;;;12.00;99.90;;;;;;5033933;28;20253;-82
2023/10/10 05:55:38;;;;;;;12.97;8.93;;;12.00;99.90;;;;;;5048770;28;20209;-83
2023/10/10 05:58:05;;;;;;;12.67;9.03;;;12.00;99.90;;;;;;5033022;28;20201;-84
2023/10/10 06:00:39;;;;;;;13.93;9.80;;;11.90;99.90;;;;;;5032248;28;20175;-78
2023/10/10 06:03:07;;;;;;;16.53;10.20;;;11.90;99.90;;;;;;5033502;28;20212;-78
2023/10/10 06:05:34;;;;;;;13.90;8.90;;;12.00;99.90;;;;;;5033772;28;20194;-80
2023/10/10 06:08:05;;;;;;;14.23;9.57;;;12.10;99.90;;;;;;5032660;28;20170;-80
2023/10/10 06:10:32;;;;;;;11.40;8.73;;;12.10;99.90;;;;;;5032325;28;20198;-78
2023/10/10 06:13:03;;;;;;;14.40;9.50;;;12.10;99.90;;;;;;5032068;28;20174;-81
2023/10/10 06:15:29;;;;;;;15.13;9.40;;;12.10;99.90;;;;;;5034026;28;20197;-80
2023/10/10 06:17:58;;;;;;;13.13;9.10;;;12.10;99.90;;;;;;5032949;28;20166;-80
2023/10/10 06:20:26;;;;;;;16.10;10.00;;;12.10;99.90;;;;;;5033063;28;20175;-80
2023/10/10 06:22:54;;;;;;;14.60;10.37;;;12.00;99.90;;;;;;5033966;28;20186;-80
2023/10/10 06:25:24;;;;;;;14.40;9.63;;;12.00;99.90;;;;;;5034793;28;20277;-82
2023/10/10 06:27:57;;;;;;;17.30;10.07;;;12.10;99.90;;;;;;5038347;28;20170;-80
2023/10/10 06:30:24;;;;;;;15.83;10.73;;;12.10;99.90;;;;;;5032594;28;20206;-80
2023/10/10 06:32:50;;;;;;;14.50;10.17;;;12.10;99.90;;;;;;5038460;28;20623;-80
2023/10/10 06:37:45;;;;;;;16.60;11.07;;;12.20;99.90;;;;;;5036586;28;20186;-81
2023/10/10 06:40:11;;;;;;;17.17;10.87;;;12.20;99.90;;;;;;5036179;28;20178;-82
2023/10/10 06:42:38;;;;;;;15.00;10.30;;;12.30;99.90;;;;;;5035831;28;20185;-81
2023/10/10 06:45:08;;;;;;;17.17;11.23;;;12.30;99.90;;;;;;5038510;28;20221;-81
2023/10/10 06:47:39;;;;;;;17.83;10.40;;;12.30;99.90;;;;;;5039517;28;20174;-81
2023/10/10 06:50:11;;;;;;;20.97;11.37;;;12.50;99.90;;;;;;5037561;28;20224;-81
2023/10/10 06:52:37;;;;;;;18.20;11.47;;;12.50;99.90;;;;;;5033904;28;20181;-79
2023/10/10 06:55:10;;;;;;;12.17;7.07;;;12.60;99.90;;;;;;5032043;28;20256;-79
2023/10/10 06:57:38;;;;;;;13.10;8.40;;;12.90;99.90;;;;;;5033182;28;20240;-79
2023/10/10 07:01:04;;;;;;;13.37;8.67;;;13.20;99.90;;;;;;5032472;28;20193;-79
2023/10/10 07:02:59;;;;;;;12.80;9.17;;;13.40;99.90;;;;;;5035523;28;20186;-80
2023/10/10 07:05:33;;;;;;;15.23;9.83;;;13.60;99.90;;;;;;5037171;28;20247;-80
2023/10/10 07:07:59;;;;;;;14.77;10.50;;;13.60;99.90;;;;;;5035591;28;20541;-79
2023/10/10 07:10:36;;;;;;;13.90;8.90;;;13.60;99.90;;;;;;5035384;28;20198;-82
2023/10/10 07:13:03;;;;;;;15.87;10.33;;;13.70;99.90;;;;;;5034295;28;20193;-82
2023/10/10 07:15:35;;;;;;;15.83;10.33;;;13.60;99.90;;;;;;5036049;28;20208;-82
2023/10/10 07:18:22;;;;;;;13.27;10.30;;;13.40;99.90;;;;;;5034764;28;20174;-81
2023/10/10 07:23:24;;;;;;;17.33;12.13;;;13.20;99.90;;;;;;5036104;28;20204;-81
2023/10/10 07:25:59;;;;;;;16.37;11.03;;;13.20;99.90;;;;;;5034244;28;20210;-81
2023/10/10 07:28:28;;;;;;;15.47;10.43;;;13.20;99.90;;;;;;5036215;28;20162;-81
2023/10/10 07:30:54;;;;;;;16.83;11.33;;;13.20;99.90;;;;;;5035277;28;20191;-81
2023/10/10 07:33:23;;;;;;;16.23;11.37;;;13.20;99.90;;;;;;5035938;28;20260;-81
2023/10/10 07:35:53;;;;;;;16.27;11.23;;;13.20;99.90;;;;;;5036627;28;20194;-80
2023/10/10 07:38:27;;;;;;;17.87;10.90;;;13.30;99.90;;;;;;5034973;28;20186;-80
2023/10/10 07:40:53;;;;;;;16.27;11.20;;;13.40;99.90;;;;;;5035819;28;20174;-80
2023/10/10 07:43:20;;;;;;;17.97;12.50;;;13.40;99.90;;;;;;5036354;28;20179;-80
2023/10/10 07:45:47;;;;;;;21.00;13.10;;;13.50;99.90;;;;;;5036257;28;20198;-81
2023/10/10 07:50:47;;;;;;;27.80;17.17;;;13.80;99.90;;;;;;5035839;28;20237;-79
2023/10/10 07:53:13;;;;;;;22.00;14.53;;;14.00;99.90;;;;;;5034951;28;20250;-80
2023/10/10 07:58:27;;;;;;;30.57;17.67;;;14.30;99.90;;;;;;5035987;28;20165;-79
2023/10/10 08:01:03;;;;;;;26.47;17.23;;;14.30;99.90;;;;;;5035113;28;20204;-80
2023/10/10 08:03:31;;;;;;;32.53;18.80;;;14.40;99.90;;;;;;5035946;28;20229;-80
2023/10/10 08:05:57;;;;;;;26.63;17.43;;;14.40;99.90;;;;;;5034084;28;20221;-79
2023/10/10 08:08:26;;;;;;;27.73;17.37;;;14.50;99.90;;;;;;5035612;28;20550;-80
2023/10/10 08:10:51;;;;;;;31.73;18.57;;;14.60;99.90;;;;;;5033569;28;20198;-80
2023/10/10 08:13:18;;;;;;;28.07;16.83;;;14.70;99.90;;;;;;5034409;28;20213;-80
2023/10/10 08:15:56;;;;;;;28.50;19.07;;;14.90;99.90;;;;;;5035430;28;20201;-79
2023/10/10 08:18:49;;;;;;;35.40;20.50;;;15.10;99.90;;;;;;5034273;28;20162;-80
2023/10/10 08:21:15;;;;;;;31.10;19.60;;;15.30;99.90;;;;;;5027534;28;20198;-79
2023/10/10 08:23:46;;;;;;;36.17;20.73;;;15.40;99.90;;;;;;5034023;28;20240;-79
2023/10/10 08:26:19;;;;;;;32.30;20.63;;;15.60;99.90;;;;;;5035432;28;20194;-80
2023/10/10 08:28:45;;;;;;;36.93;22.03;;;15.80;99.90;;;;;;5035173;28;20178;-80
2023/10/10 08:31:13;;;;;;;36.07;20.93;;;16.10;99.90;;;;;;5034798;28;20229;-80
2023/10/10 08:33:39;;;;;;;31.70;19.73;;;16.30;99.90;;;;;;5033901;28;20181;-79
2023/10/10 08:36:05;;;;;;;29.73;19.17;;;16.40;99.90;;;;;;5034774;28;20186;-80
2023/10/10 08:38:31;;;;;;;33.67;20.43;;;16.40;99.90;;;;;;5033817;28;20175;-80
2023/10/10 08:41:06;;;;;;;35.07;21.10;;;16.40;99.90;;;;;;5034584;28;20179;-80
2023/10/10 08:43:35;;;;;;;34.67;19.63;;;16.40;99.90;;;;;;5034837;28;20623;-80
2023/10/10 08:46:04;;;;;;;33.27;19.77;;;16.40;99.90;;;;;;5034913;28;20222;-80
2023/10/10 08:48:33;;;;;;;33.90;20.43;;;16.60;99.90;;;;;;5034801;28;20194;-80
2023/10/10 08:51:03;;;;;;;33.17;19.53;;;16.80;99.90;;;;;;5033262;28;20197;-80
2023/10/10 08:53:30;;;;;;;29.67;18.37;;;17.00;99.90;;;;;;5033988;28;20174;-80
2023/10/10 08:55:56;;;;;;;29.87;18.43;;;17.20;99.90;;;;;;5033255;28;20206;-80
2023/10/10 08:58:22;;;;;;;29.27;17.70;;;17.40;99.90;;;;;;5033148;28;20173;-80
2023/10/10 09:00:49;;;;;;;29.57;18.27;;;17.60;99.90;;;;;;5033044;28;20207;-78
2023/10/10 09:03:15;;;;;;;27.80;17.77;;;17.70;99.90;;;;;;5033455;28;20185;-81
2023/10/10 09:05:41;;;;;;;27.70;17.13;;;17.80;99.90;;;;;;5034872;28;20194;-81
2023/10/10 09:08:14;;;;;;;26.67;16.80;;;18.00;99.90;;;;;;5033428;28;20199;-80
2023/10/10 09:10:40;;;;;;;23.23;14.63;;;18.10;99.90;;;;;;5034229;28;20285;-79
2023/10/10 09:13:07;;;;;;;23.23;14.90;;;18.20;99.90;;;;;;5033220;28;20178;-79
2023/10/10 09:15:34;;;;;;;21.90;13.03;;;18.20;22.00;;;;;;5033598;28;20222;-80
2023/10/10 09:18:12;;;;;;;19.30;13.47;;;18.30;7.40;;;;;;5033885;28;20177;-79
2023/10/10 09:20:45;;;;;;;19.50;12.10;;;18.20;1.00;;;;;;5032220;28;20245;-80
2023/10/10 09:23:27;;;;;;;19.83;11.98;;;18.30;61.40;;;;;;5032816;28;20151;-79
2023/10/10 09:26:19;;;;;;;18.80;12.87;;;18.50;8.10;;;;;;5033579;28;20198;-79
2023/10/10 09:28:49;;;;;;;22.90;12.77;;;18.50;1.00;;;;;;5032826;28;20189;-79
2023/10/10 09:31:59;;;;;;;20.00;12.37;;;18.60;1.00;;;;;;5032867;28;20205;-79
2023/10/10 09:34:12;;;;;;;21.03;13.20;;;18.80;1.00;;;;;;5031796;28;20233;-79
2023/10/10 09:36:39;;;;;;;20.45;12.52;;;18.80;1.00;;;;;;5032164;28;20166;-80
2023/10/10 09:39:08;;;;;;;17.15;12.73;;;18.90;1.00;;;;;;5032889;28;20174;-80
2023/10/10 10:06:37;;;;;;;14.90;9.43;;;19.80;99.90;;;;;;5033068;28;20201;-81
2023/10/10 10:09:17;;;;;;;13.23;9.00;;;20.00;1.00;;;;;;5033296;28;20170;-82
2023/10/10 10:11:56;;;;;;;13.25;8.65;;;20.20;1.00;;;;;;5035324;28;20201;-82
2023/10/10 10:14:35;;;;;;;13.52;8.88;;;20.40;1.00;;;;;;5032915;28;20246;-82
2023/10/10 10:17:18;;;;;;;13.40;7.78;;;20.40;1.00;;;;;;5033359;28;20527;-82
2023/10/10 10:19:45;;;;;;;13.85;7.50;;;20.50;99.90;;;;;;5033253;28;20197;-81
2023/10/10 10:22:17;;;;;;;9.98;7.22;;;20.50;99.90;;;;;;5032604;28;20173;-82
2023/10/10 10:24:46;;;;;;;11.75;7.65;;;20.50;99.90;;;;;;5031507;28;20193;-82
2023/10/10 10:27:25;;;;;;;11.07;6.95;;;20.60;1.00;;;;;;5031774;28;20261;-79
2023/10/10 10:32:54;;;;;;;11.57;7.45;;;20.80;99.90;;;;;;5032475;28;20153;-79
2023/10/10 10:35:56;;;;;;;11.57;7.28;;;20.70;99.90;;;;;;5031652;28;20189;-78
2023/10/10 10:38:23;;;;;;;9.93;6.90;;;20.70;1.00;;;;;;5036414;28;20230;-79
2023/10/10 10:40:50;;;;;;;14.43;7.93;;;20.90;1.00;;;;;;5036096;28;20175;-77
2023/10/10 10:43:31;;;;;;;8.27;6.20;;;20.70;95.50;;;;;;5036896;28;20224;-79
2023/10/10 10:46:27;;;;;;;11.65;7.03;;;20.80;1.00;;;;;;5035287;28;20225;-79
2023/10/10 10:49:05;;;;;;;10.23;6.47;;;21.00;1.00;;;;;;5036298;28;20503;-79
2023/10/10 10:51:44;;;;;;;11.07;7.00;;;21.00;1.00;;;;;;5036438;28;20221;-79
2023/10/10 10:54:35;;;;;;;9.73;7.20;;;21.20;99.20;;;;;;5035232;28;20162;-80
2023/10/10 10:57:01;;;;;;;9.35;5.90;;;21.20;99.90;;;;;;5036247;28;20182;-79
2023/10/10 10:59:35;;;;;;;8.98;6.15;;;21.40;1.00;;;;;;5035173;28;20163;-80
2023/10/10 11:02:01;;;;;;;8.05;5.63;;;21.50;99.90;;;;;;5036079;28;20158;-79
2023/10/10 11:07:04;;;;;;;10.57;6.45;;;21.60;99.90;;;;;;5036506;28;20186;-79
2023/10/10 11:09:32;;;;;;;8.07;5.68;;;21.70;6.60;;;;;;5036510;28;20167;-79
2023/10/10 11:12:03;;;;;;;8.32;5.45;;;21.90;99.90;;;;;;5035677;28;20202;-79
2023/10/10 11:14:34;;;;;;;7.20;5.30;;;21.70;99.90;;;;;;5036204;28;20178;-80
2023/10/10 11:17:00;;;;;;;9.32;5.00;;;21.90;1.00;;;;;;5035959;28;20245;-79
2023/10/10 11:21:59;;;;;;;7.90;4.28;;;22.00;83.70;;;;;;5035749;28;20265;-80
2023/10/10 11:24:29;;;;;;;8.55;4.60;;;22.00;1.00;;;;;;5036234;28;20192;-80
2023/10/10 11:29:47;;;;;;;5.80;3.95;;;21.90;99.90;;;;;;5036090;28;20245;-79
2023/10/10 11:32:25;;;;;;;7.38;4.20;;;21.80;1.00;;;;;;5035223;28;20531;-79
2023/10/10 11:35:17;;;;;;;8.05;4.53;;;22.10;99.90;;;;;;5035473;28;20190;-81
2023/10/10 11:37:47;;;;;;;7.25;4.05;;;22.20;99.10;;;;;;5034473;28;20254;-81
2023/10/10 11:40:19;;;;;;;6.88;4.30;;;22.30;1.00;;;;;;5034689;28;20177;-79
2023/10/10 11:42:49;;;;;;;5.20;3.72;;;22.50;99.90;;;;;;5033683;28;20281;-80
2023/10/10 11:45:19;;;;;;;9.00;3.92;;;22.40;1.00;;;;;;5035227;28;20289;-80
2023/10/10 11:47:46;;;;;;;7.22;4.38;;;22.40;99.90;;;;;;5035086;28;20204;-81
2023/10/10 11:50:15;;;;;;;8.85;3.90;;;22.40;1.00;;;;;;5035654;28;20285;-79
2023/10/10 11:52:50;;;;;;;3.95;3.22;;;22.30;1.00;;;;;;5035233;28;20179;-80
2023/10/10 11:55:20;;;;;;;7.57;3.88;;;22.80;99.90;;;;;;5034074;28;20690;-79
2023/10/10 11:57:49;;;;;;;7.28;3.80;;;22.90;99.90;;;;;;5035406;28;20181;-79
2023/10/10 12:00:22;;;;;;;4.72;3.22;;;23.00;99.90;;;;;;5034379;28;20174;-79
2023/10/10 12:02:51;;;;;;;6.80;3.92;;;23.00;1.00;;;;;;5033725;28;20175;-79
2023/10/10 12:08:00;;;;;;;8.18;3.90;;;23.10;99.90;;;;;;5035490;28;20200;-79
2023/10/10 12:13:12;;;;;;;7.20;3.67;;;23.20;1.00;;;;;;5034702;28;20208;-80
2023/10/10 12:15:40;;;;;;;6.03;3.20;;;23.30;1.00;;;;;;5033998;28;20190;-80
2023/10/10 12:18:13;;;;;;;6.80;3.47;;;23.30;1.00;;;;;;5034813;28;20174;-79
2023/10/10 12:20:43;;;;;;;6.60;3.55;;;23.50;1.00;;;;;;5035051;28;20550;-79
2023/10/10 12:23:10;;;;;;;5.50;3.40;;;23.50;99.90;;;;;;5033191;28;20540;-80
2023/10/10 12:25:41;;;;;;;6.60;3.22;;;23.40;1.00;;;;;;5033337;28;20198;-79
2023/10/10 12:28:12;;;;;;;6.25;3.45;;;23.40;99.90;;;;;;5034824;28;20158;-80
2023/10/10 12:30:41;;;;;;;5.10;3.38;;;23.00;1.00;;;;;;5034649;28;20194;-79
2023/10/10 12:33:15;;;;;;;6.25;3.80;;;23.00;1.00;;;;;;5034406;28;20216;-80
2023/10/10 12:35:47;;;;;;;5.03;3.60;;;23.10;26.80;;;;;;5033839;28;20196;-79
2023/10/10 12:38:23;;;;;;;6.47;3.33;;;23.10;99.90;;;;;;5034544;28;20147;-80
2023/10/10 12:40:53;;;;;;;7.85;3.78;;;23.30;9.20;;;;;;5033927;28;20174;-78
2023/10/10 12:43:19;;;;;;;8.52;3.92;;;23.30;1.00;;;;;;5034909;28;20232;-80
2023/10/10 12:45:51;;;;;;;5.05;3.72;;;23.30;47.20;;;;;;5036265;28;20198;-80
2023/10/10 12:48:22;;;;;;;10.48;3.70;;;23.20;1.00;;;;;;5034483;28;20162;-79
2023/10/10 12:50:50;;;;;;;5.75;3.40;;;23.20;1.00;;;;;;5032518;28;20190;-76
2023/10/10 12:53:19;;;;;;;6.22;3.40;;;23.20;1.00;;;;;;5033075;28;20233;-79
2023/10/10 12:55:48;;;;;;;7.47;3.83;;;23.00;1.00;;;;;;5092073;23;20309;-81
2023/10/10 12:58:22;;;;;;;6.28;3.53;;;22.80;97.60;;;;;;5037329;28;20548;-82
2023/10/10 13:00:50;;;;;;;5.75;3.20;;;22.60;99.90;;;;;;5055451;28;20174;-78
2023/10/10 13:03:27;;;;;;;7.63;3.45;;;22.70;1.00;;;;;;5037655;28;20676;-82
2023/10/10 13:05:58;;;;;;;7.43;3.70;;;22.70;1.00;;;;;;5055594;28;20193;-81
2023/10/10 13:08:25;;;;;;;4.82;3.17;;;22.60;1.00;;;;;;5056387;28;20154;-81
2023/10/10 13:11:03;;;;;;;5.63;3.10;;;22.70;57.20;;;;;;5054177;28;20262;-82
2023/10/10 13:13:31;;;;;;;5.93;3.65;;;22.70;1.00;;;;;;5055721;28;20161;-79
2023/10/10 13:18:54;;;;;;;7.18;3.70;;;22.50;1.00;;;;;;5039676;28;20185;-82
2023/10/10 13:21:20;;;;;;;5.45;3.55;;;22.50;1.00;;;;;;5053183;28;20192;-82
2023/10/10 13:23:50;;;;;;;6.65;3.53;;;22.40;95.40;;;;;;5054083;28;20559;-82
2023/10/10 13:26:17;;;;;;;5.90;3.47;;;22.40;99.90;;;;;;5053340;28;20206;-82
2023/10/10 13:28:46;;;;;;;8.55;3.42;;;22.30;1.00;;;;;;5055196;28;20174;-81
2023/10/10 13:31:17;;;;;;;7.30;4.15;;;22.20;99.90;;;;;;5055036;28;20205;-82
2023/10/10 13:33:43;;;;;;;4.65;3.22;;;22.30;99.90;;;;;;5055672;28;20590;-82
2023/10/10 13:36:14;;;;;;;7.32;3.65;;;22.40;1.00;;;;;;5055841;28;20570;-81
2023/10/10 13:38:47;;;;;;;8.88;3.65;;;22.10;1.00;;;;;;5056194;28;20217;-82
2023/10/10 13:41:22;;;;;;;6.20;3.67;;;22.20;99.90;;;;;;5055223;28;20264;-81
2023/10/10 13:43:50;;;;;;;7.22;3.80;;;22.30;74.40;;;;;;5055843;28;20165;-82
2023/10/10 13:46:20;;;;;;;5.20;3.80;;;22.50;1.00;;;;;;5053744;28;20254;-82
2023/10/10 13:48:46;;;;;;;5.70;3.65;;;22.90;97.70;;;;;;5055196;28;20178;-82
2023/10/10 13:51:15;;;;;;;6.50;3.70;;;23.00;1.00;;;;;;5054434;28;20340;-82
2023/10/10 13:53:43;;;;;;;7.43;3.65;;;23.20;1.00;;;;;;5053684;28;20673;-82
2023/10/10 13:56:10;;;;;;;5.60;3.92;;;23.20;99.90;;;;;;5055118;28;20205;-82
2023/10/10 13:58:37;;;;;;;6.43;4.03;;;23.50;1.00;;;;;;5053626;28;20200;-82
2023/10/10 14:01:25;;;;;;;5.50;3.60;;;23.60;1.00;;;;;;5052987;28;20280;-82
2023/10/10 14:03:57;;;;;;;6.13;4.00;;;23.70;1.00;;;;;;5055543;28;20194;-82
2023/10/10 14:06:26;;;;;;;6.68;3.80;;;23.80;1.00;;;;;;5055070;28;20208;-82
2023/10/10 14:08:53;;;;;;;5.97;3.88;;;23.60;1.00;;;;;;5055272;28;20654;-82
2023/10/10 14:11:22;;;;;;;7.45;3.90;;;23.50;1.00;;;;;;5052133;28;20212;-82
2023/10/10 14:13:49;;;;;;;6.38;3.90;;;23.50;1.00;;;;;;5055078;28;20173;-82
2023/10/10 14:16:15;;;;;;;5.97;4.05;;;23.60;1.00;;;;;;5053413;28;20280;-82
2023/10/10 14:18:47;;;;;;;5.22;3.97;;;23.60;1.00;;;;;;5055285;28;20197;-82
2023/10/10 14:21:16;;;;;;;7.18;4.38;;;23.60;99.90;;;;;;5054436;28;20189;-82
2023/10/10 14:23:41;;;;;;;6.90;4.13;;;23.30;99.90;;;;;;5054536;28;20726;-82
2023/10/10 14:26:16;;;;;;;6.50;3.80;;;23.10;99.90;;;;;;5054381;28;20185;-82
2023/10/10 14:28:53;;;;;;;8.55;4.05;;;22.80;99.90;;;;;;5054720;28;20226;-82
2023/10/10 14:31:21;;;;;;;7.97;3.72;;;22.90;99.90;;;;;;5054462;28;20208;-82
2023/10/10 14:33:47;;;;;;;7.93;4.38;;;23.10;99.90;;;;;;5053431;28;20174;-83
2023/10/10 14:36:13;;;;;;;6.35;4.20;;;23.20;99.90;;;;;;5053426;28;20205;-82
2023/10/10 14:38:44;;;;;;;6.13;3.95;;;23.00;1.00;;;;;;5054769;28;20162;-82
2023/10/10 14:41:11;;;;;;;7.47;3.92;;;23.20;1.00;;;;;;5054243;28;20174;-82
2023/10/10 14:43:37;;;;;;;5.30;4.13;;;23.40;1.00;;;;;;5054736;28;20165;-82
2023/10/10 14:46:02;;;;;;;6.15;3.75;;;22.90;1.00;;;;;;5053802;28;20255;-82
2023/10/10 14:48:30;;;;;;;5.97;3.85;;;23.00;1.00;;;;;;5053851;28;20178;-83
2023/10/10 14:50:57;;;;;;;5.00;3.97;;;23.00;1.00;;;;;;5053213;28;20197;-82
2023/10/10 14:53:22;;;;;;;8.65;3.80;;;22.70;1.00;;;;;;5053664;28;20170;-83
2023/10/10 14:55:51;;;;;;;6.70;4.13;;;22.60;1.00;;;;;;5053392;28;20209;-83
2023/10/10 14:58:21;;;;;;;7.45;4.32;;;22.40;1.00;;;;;;5054953;28;20173;-82
2023/10/10 15:00:52;;;;;;;7.15;4.65;;;22.40;99.90;;;;;;5054052;28;20173;-82
2023/10/10 15:03:23;;;;;;;5.63;4.00;;;22.30;36.60;;;;;;5054523;28;20173;-82
2023/10/10 15:05:50;;;;;;;7.55;4.43;;;22.30;23.60;;;;;;5055077;28;20200;-83
2023/10/10 15:08:17;;;;;;;6.35;4.00;;;22.20;99.90;;;;;;5053976;28;20181;-82
2023/10/10 15:10:43;;;;;;;8.48;4.22;;;22.10;99.90;;;;;;5053508;28;20631;-82
2023/10/10 15:13:10;;;;;;;7.10;4.10;;;22.00;99.90;;;;;;5053374;28;20169;-83
2023/10/10 15:15:35;;;;;;;5.82;3.85;;;21.90;1.00;;;;;;5054693;28;20188;-82
2023/10/10 15:18:01;;;;;;;5.03;3.75;;;21.60;1.00;;;;;;5054122;28;20194;-82
2023/10/10 15:20:27;;;;;;;5.88;3.88;;;21.50;99.90;;;;;;5053706;28;20204;-82
2023/10/10 15:22:53;;;;;;;5.82;3.75;;;21.30;57.40;;;;;;5058211;28;20272;-82
2023/10/10 15:25:21;;;;;;;6.85;3.80;;;21.10;1.00;;;;;;5057553;28;20220;-82
2023/10/10 15:27:48;;;;;;;6.28;3.72;;;21.10;1.00;;;;;;5057067;28;20199;-82
2023/10/10 15:30:15;;;;;;;5.43;3.60;;;21.00;1.00;;;;;;5057158;28;20177;-82
2023/10/10 15:32:46;;;;;;;4.97;3.45;;;20.90;1.00;;;;;;5056738;28;20549;-82
2023/10/10 15:35:16;;;;;;;5.75;3.40;;;20.90;84.90;;;;;;5058241;28;20181;-82
2023/10/10 15:37:42;;;;;;;6.40;3.50;;;20.90;99.90;;;;;;5058327;28;20185;-83
2023/10/10 15:40:20;;;;;;;4.90;3.88;;;20.90;1.00;;;;;;5056918;28;20177;-82
2023/10/10 15:42:52;;;;;;;4.68;3.58;;;20.90;99.90;;;;;;5057923;28;20189;-82
2023/10/10 15:45:21;;;;;;;6.35;3.90;;;20.80;99.90;;;;;;5058278;28;20253;-82
2023/10/10 15:47:54;;;;;;;6.10;3.88;;;20.80;1.00;;;;;;5058381;28;20640;-82
2023/10/10 15:50:21;;;;;;;8.93;3.85;;;20.80;1.00;;;;;;5058136;28;20689;-83
2023/10/10 15:52:48;;;;;;;7.05;3.50;;;20.80;1.00;;;;;;5057677;28;20178;-82
2023/10/10 15:55:23;;;;;;;6.78;3.67;;;20.80;1.00;;;;;;5058225;28;20235;-82
2023/10/10 15:57:52;;;;;;;6.30;3.88;;;20.90;1.00;;;;;;5058719;28;20166;-82
2023/10/10 16:00:21;;;;;;;7.32;3.72;;;20.80;1.00;;;;;;5058296;28;20196;-83